Leavenworth, KS (66043)

2:49 PM CST on February 06, 2016 (GMT -0600)
APRSWXNET | | Change Station
CLOSE
Current Station
Personal Weather Station
Location: Leavenworth, KS
Elevation: 836 ft
Nearby Weather Stations

Elev 836 ft 39.23 °N, 94.91 °W | Updated 22 minutes ago

Clear
Clear
49 °F
Feels Like 49 °F
N
0
Wind Variable Wind from WSW
Gusts 3.0 mph

Today
High -- | Low -- °F
--% Chance of Precip.
Yesterday
High -- | Low -- °F
Precip. -- in
Pressure 30.24 in
Visibility 10.0 miles
Clouds Few 11000 ft
Scattered Clouds 16000 ft
Windchill 49 °F
Dew Point 35 °F
Humidity 59%
Rainfall in
Snow Depth Not available.
7:22 AM 5:45 PM
Waning Crescent, 4% visible
METAR KMCI 061953Z 23010KT 10SM FEW110 SCT160 09/00 A3023 RMK AO2 SLP240 T00890000
Pressure 30.24 in
Visibility 10.0 miles
Clouds Few 11000 ft
Scattered Clouds 16000 ft
Windchill 49 °F
Dew Point 35 °F
Humidity 59%
Rainfall in
Snow Depth Not available.
7:22 AM 5:45 PM
Waning Crescent, 4% visible
METAR KMCI 061953Z 23010KT 10SM FEW110 SCT160 09/00 A3023 RMK AO2 SLP240 T00890000

10-Day Weather Forecast

Almanac

Astronomy

Feb. 06, 2016 Rise Set
Actual Time
Civil Twilight
Nautical Twilight
Astronomical Twilight
Moon
Length of Visible Light
Length of Day
Tomorrow will be .
, % of the Moon is Illuminated

Today's Extremes

State Highs State Lows

Community

WunderPhotos

Upload Photos

1,891,046 photos uploaded!

WunderBlog® & News

Nearby

Air Quality

  Air Quality AQ Index Pollutant
Not available.

Snow Depth

Station Depth Elevation

Earthquake Activity

City Distance Mag. Time & Date
Minimum magnitude displayed is 2.5.

Coastal Water Temperatures

Place Temperature

Stations

Nearby Weather Stations

Station Location Temp. Windchill Dew Point Humidity Wind Precip. Elev Updated Type
                   

Watches & Warnings

There are currently no watches in effect.